Forside
METAR-TAF:

METAR-TAF

Lufthavne :

Sukkur, Pakistan

Breddekreds: 27-43-19N, længdekreds: 068-47-31E, højde: 60 m

Aktuelle vejr

Denne rapport blev lavet for 29 minutter siden, kl. 07:00 UTC
Vind 10 kt fra nordøst
Temperatur 24°C
Fugtighed 54%
Tryk 1012 hPa
Sigt: 4000 m
tåge/dis

METAR: OPSK 290700Z 05010KT 4000 HZ NSC 24/14 Q1012 NOSIG

Tid: 12:29 (07:29 UTC)

Vejrudsigter

Denne rapport blev lavet for 3 timer og 59 minutter siden, kl. 03:30 UTC
Foreløbig gælder fra 29 på 06 UTC til 01 på 06 UTC
Vind 5 kt fra nordøst med vindstød på up til 15 kt
Sigt: 4000 m
tåge/dis
Fra 29 på 1800 UTC
Vind 8 kt fra østnordøst
Sigt: 3000 m
tåge/dis
Midlertidig
fra 01 på 00 UTC til 01 på 04 UTC
Vind 6 kt fra nordøst
Sigt: 1500 m
dis

TAF: OPSK 290330Z 2906/0106 05005G15KT 4000 HZ NSC FM291800 06008KT 3000 HZ NSC TEMPO 0100/0104 05006KT 1500 BR NSC

Vejrobservationer og prognoser fra mere end 4000 lufthavne (METAR og TAF).

De gule og røde prikker repræsenterer de meteorologiske stationer.

Flyt musen over at se navnet på stationen.

Så klik over at se vejr observationer og prognoser.

At skifte det kort: Klik på de grønne knapper med et sort kors for at zoome ind; på den grønne knap med en bindestreg for at zoome ud; eller på de grønne pile for tilstødende kort.


METAR-TAF: